NA ZZZZ-EGJJ

Flight info

Callsign NA
Flight time N/A
Altitude 7000
Route JSY/N0273F060
Aircraft C750/M-SBDE3FGHRWXY/S

Departure

Time N/A
Airport ZZZZ

Arrival

Time 2026-05-04 17:44
Airport Jersey Airport (EGJJ)
Time Latitude Longitude Altitude Speed Heading
2026-05-04 17:35 49.43355 -2.59055 327 ft 0 kts 180°
2026-05-04 17:36 49.43352 -2.59059 327 ft 0 kts 225°
2026-05-04 17:36 49.43375 -2.59139 330 ft 28 kts 287°
2026-05-04 17:36 49.43482 -2.59216 330 ft 13 kts 356°
2026-05-04 17:37 49.43513 -2.59277 331 ft 6 kts 278°
2026-05-04 17:37 49.43516 -2.59340 330 ft 6 kts 272°
2026-05-04 17:37 49.43503 -2.59795 321 ft 101 kts 269°
2026-05-04 17:37 49.43470 -2.61201 592 ft 145 kts 271°
2026-05-04 17:38 49.42961 -2.62591 831 ft 182 kts 210°
2026-05-04 17:38 49.41737 -2.62279 1293 ft 192 kts 132°
2026-05-04 17:38 49.41208 -2.60368 1877 ft 208 kts 99°
2026-05-04 17:38 49.40910 -2.57988 2077 ft 252 kts 104°
2026-05-04 17:39 49.38899 -2.53119 1896 ft 267 kts 129°
2026-05-04 17:39 49.37693 -2.51024 1889 ft 257 kts 130°
2026-05-04 17:39 49.36496 -2.48955 1885 ft 271 kts 131°
2026-05-04 17:40 49.35160 -2.46909 1893 ft 270 kts 135°
2026-05-04 17:40 49.33802 -2.44927 1891 ft 269 kts 134°
2026-05-04 17:40 49.32447 -2.42966 1922 ft 268 kts 135°
2026-05-04 17:40 49.31080 -2.41071 1920 ft 269 kts 137°
2026-05-04 17:41 49.29660 -2.39187 1920 ft 271 kts 137°
2026-05-04 17:41 49.28209 -2.37331 1912 ft 272 kts 140°
2026-05-04 17:41 49.26715 -2.35540 1911 ft 274 kts 140°
2026-05-04 17:41 49.25206 -2.33741 1903 ft 276 kts 140°
2026-05-04 17:42 49.23690 -2.31938 1913 ft 276 kts 140°
2026-05-04 17:42 49.22169 -2.30136 1908 ft 275 kts 140°
2026-05-04 17:42 49.20947 -2.28529 1631 ft 195 kts 118°
2026-05-04 17:42 49.20710 -2.26704 1140 ft 151 kts 92°
2026-05-04 17:43 49.20616 -2.25233 1023 ft 133 kts 91°
2026-05-04 17:43 49.20575 -2.23833 837 ft 134 kts 86°
2026-05-04 17:43 49.20585 -2.22386 554 ft 136 kts 85°
2026-05-04 17:43 49.20683 -2.21014 383 ft 130 kts 79°
2026-05-04 17:44 49.20784 -2.19782 279 ft 97 kts 80°
2026-05-04 17:44 49.20819 -2.19085 279 ft 30 kts 90°
2026-05-04 17:44 49.20771 -2.18927 279 ft 20 kts 119°
2026-05-04 17:44 49.20747 -2.18854 279 ft 0 kts 124°
2026-05-04 17:45 49.20741 -2.18852 279 ft 4 kts 164°
2026-05-04 17:45 49.20703 -2.18900 278 ft 12 kts 256°
2026-05-04 17:45 49.20684 -2.19106 278 ft 16 kts 263°
2026-05-04 17:45 49.20681 -2.19135 278 ft 0 kts 264°
2026-05-04 17:46 49.20681 -2.19136 278 ft 0 kts 264°
2026-05-04 17:47 49.20681 -2.19147 278 ft 7 kts 263°
2026-05-04 17:47 49.20701 -2.19327 278 ft 29 kts 283°
2026-05-04 17:47 49.20673 -2.19625 277 ft 28 kts 231°
2026-05-04 17:48 49.20604 -2.19871 277 ft 25 kts 258°
2026-05-04 17:48 49.20463 -2.19915 277 ft 25 kts 160°
2026-05-04 17:48 49.20440 -2.19772 277 ft 26 kts 86°